Portada
METAR-TAF:

METAR-TAF

Aeroports :

Base Aèria de Morón

Morón de la Frontera, Espanya

latitud: 37-09N, longitud: 005-37W, altitud: 87 m

Observació

L'informe es va fer fa 1 hora i 3 minuts, a les 07:00 UTC
Vent 3 kt del Sud/Sud-Est, variant entre Est/Sud-Est i Sud
Temperatura 10°C
Humitat 93%
Pressió 1013 hPa
Visibilitat: 8000 m

METAR: LEMO 300700Z 15003KT 120V180 8000 NSC 10/09 Q1013 NOSIG

Hora: 10:03 (08:03 UTC)

Pronòstic

L'informe es va fer fa 3 hores i 3 minuts, a les 05:00 UTC
Pronòstic vàlid del 30 a les 06 UTC al 30 a les 15 UTC
Vent 5 kt del Sud/Sud-Oest
Visibilitat 10 km o més
Escasses núvols a una alçada de 4000 ft
Probabilitat 30% :
Temporalment
l' 30 a les 06 UTC al 30 a les 09 UTC
Visibilitat: 4000 m
Cel ennuvolat a una alçada de 1000 ft
boirina

TAF: LEMO 300500Z 3006/3015 21005KT 9999 FEW040 PROB30 TEMPO 3006/3009 4000 BR BKN010

Observacions i pronòstics meteorològics de més de 4000 aeroports (METAR i TAF).

Les estacions disponibles són els punts grocs i vermells al mapa.

Posi el ratolí al punt desitjat per veure el nom de l'estació.

Feu clic per veure les observacions i els pronòstics meteorològics.

Per canviar el mapa: feu clic els botons verds amb una creu de color negre per apropar; al botó verd amb un guió per allunyar la imatge; o en les fletxes verdes per a mapes adjacents.


METAR-TAF: